Time;durP1;ratioP1;P1;durP2;ratioP2;P2;SDS_P1;SDS_P2;PMS_P1;PMS_P2;Temp;Humidity;BMP_temperature;BMP_pressure;BME280_temperature;BME280_humidity;BME280_pressure;Samples;Min_cycle;Max_cycle;Signal;HPM_P1;HPM_P2
2022/07/22 00:01:55;;;;;;;14.10;7.75;;;;;;;;;;5065522;28;20071;-66
2022/07/22 00:04:21;;;;;;;14.05;7.18;;;;;;;;;;5048067;28;20028;-65
2022/07/22 00:06:47;;;;;;;13.73;7.65;;;;;;;;;;5050820;28;20086;-66
2022/07/22 00:09:13;;;;;;;17.52;7.50;;;;;;;;;;5044428;28;20028;-65
2022/07/22 00:11:39;;;;;;;16.42;7.75;;;;;;;;;;5061065;28;20027;-65
2022/07/22 00:14:06;;;;;;;14.95;7.68;;;;;;;;;;5053916;28;20086;-66
2022/07/22 00:16:32;;;;;;;15.55;7.35;;;;;;;;;;5057802;28;20068;-67
2022/07/22 00:18:58;;;;;;;14.98;7.78;;;;;;;;;;5037089;28;20327;-65
2022/07/22 00:21:24;;;;;;;14.43;7.55;;;;;;;;;;5062124;28;20047;-65
2022/07/22 00:23:50;;;;;;;14.38;7.50;;;;;;;;;;5054757;28;20353;-66
2022/07/22 00:26:17;;;;;;;16.75;7.53;;;;;;;;;;5041181;28;20464;-65
2022/07/22 00:28:43;;;;;;;13.48;6.82;;;;;;;;;;5060453;28;20033;-65
2022/07/22 00:31:09;;;;;;;15.88;7.88;;;;;;;;;;5035869;28;20028;-66
2022/07/22 00:33:35;;;;;;;12.57;6.95;;;;;;;;;;5057779;28;20511;-66
2022/07/22 00:36:01;;;;;;;18.83;7.20;;;;;;;;;;5060611;28;20408;-65
2022/07/22 00:38:27;;;;;;;15.23;7.40;;;;;;;;;;5056691;28;20044;-66
2022/07/22 00:40:53;;;;;;;13.40;7.28;;;;;;;;;;5054562;28;20028;-67
2022/07/22 00:43:19;;;;;;;15.60;7.30;;;;;;;;;;5060448;28;20559;-66
2022/07/22 00:45:46;;;;;;;14.75;7.28;;;;;;;;;;5052182;28;20039;-65
2022/07/22 00:48:12;;;;;;;14.85;7.05;;;;;;;;;;5056978;28;20036;-65
2022/07/22 00:50:38;;;;;;;14.02;6.90;;;;;;;;;;5041715;28;20130;-65
2022/07/22 00:53:04;;;;;;;14.75;7.10;;;;;;;;;;5055260;28;20060;-65
2022/07/22 00:55:31;;;;;;;16.27;7.43;;;;;;;;;;5055844;28;20051;-67
2022/07/22 00:57:57;;;;;;;14.45;7.20;;;;;;;;;;5053281;28;20104;-65
2022/07/22 01:00:23;;;;;;;13.68;7.07;;;;;;;;;;5056144;28;20023;-65
2022/07/22 01:02:49;;;;;;;14.50;7.47;;;;;;;;;;5058054;28;20043;-65
2022/07/22 01:05:15;;;;;;;14.90;7.90;;;;;;;;;;5060296;28;20107;-65
2022/07/22 01:07:41;;;;;;;15.93;7.47;;;;;;;;;;5057488;28;20313;-65
2022/07/22 01:10:08;;;;;;;13.75;7.10;;;;;;;;;;5055806;28;20487;-65
2022/07/22 01:12:34;;;;;;;15.05;6.97;;;;;;;;;;5059791;28;20036;-65
2022/07/22 01:15:00;;;;;;;15.52;6.95;;;;;;;;;;5050991;28;20087;-66
2022/07/22 01:17:26;;;;;;;13.90;6.70;;;;;;;;;;5041019;28;20042;-65
2022/07/22 01:19:52;;;;;;;13.60;6.95;;;;;;;;;;5033871;28;20032;-65
2022/07/22 01:22:19;;;;;;;14.15;7.07;;;;;;;;;;5058517;28;20071;-65
2022/07/22 01:24:45;;;;;;;18.00;6.80;;;;;;;;;;5042425;28;20033;-65
2022/07/22 01:27:11;;;;;;;14.70;6.78;;;;;;;;;;5036986;28;20115;-65
2022/07/22 01:29:37;;;;;;;14.50;7.32;;;;;;;;;;5060929;28;20036;-65
2022/07/22 01:32:03;;;;;;;13.70;7.10;;;;;;;;;;5055107;28;20124;-65
2022/07/22 01:34:29;;;;;;;14.30;6.97;;;;;;;;;;5054372;28;20040;-65
2022/07/22 01:36:55;;;;;;;14.50;6.95;;;;;;;;;;5057222;28;20111;-65
2022/07/22 01:39:21;;;;;;;12.23;7.03;;;;;;;;;;5056109;28;20024;-66
2022/07/22 01:41:48;;;;;;;12.73;6.90;;;;;;;;;;5055194;28;20063;-66
2022/07/22 01:44:14;;;;;;;14.65;6.78;;;;;;;;;;5057378;28;20511;-66
2022/07/22 01:46:40;;;;;;;14.57;7.30;;;;;;;;;;5058803;28;20105;-65
2022/07/22 01:49:06;;;;;;;15.95;7.47;;;;;;;;;;5052413;28;21057;-66
2022/07/22 01:51:32;;;;;;;14.32;6.72;;;;;;;;;;5057514;28;20049;-66
2022/07/22 01:53:58;;;;;;;14.75;7.28;;;;;;;;;;5052043;28;20028;-66
2022/07/22 01:56:24;;;;;;;14.68;7.03;;;;;;;;;;5057787;28;21312;-66
2022/07/22 01:58:51;;;;;;;15.55;7.55;;;;;;;;;;5053340;28;20813;-66
2022/07/22 02:01:17;;;;;;;14.35;7.07;;;;;;;;;;5058785;28;20041;-65
2022/07/22 02:03:43;;;;;;;14.25;7.68;;;;;;;;;;5057138;28;20036;-66
2022/07/22 02:06:09;;;;;;;13.20;7.20;;;;;;;;;;5054829;28;20055;-66
2022/07/22 02:08:35;;;;;;;16.10;7.80;;;;;;;;;;5040454;28;20036;-65
2022/07/22 02:11:01;;;;;;;14.10;7.35;;;;;;;;;;5034960;28;20040;-66
2022/07/22 02:13:27;;;;;;;13.90;6.85;;;;;;;;;;5058152;28;20432;-66
2022/07/22 02:15:53;;;;;;;15.23;7.68;;;;;;;;;;5053363;28;20024;-65
2022/07/22 02:18:19;;;;;;;12.15;6.97;;;;;;;;;;5038353;28;20468;-66
2022/07/22 02:20:46;;;;;;;14.05;7.50;;;;;;;;;;5061096;28;20029;-67
2022/07/22 02:23:12;;;;;;;13.70;7.53;;;;;;;;;;5057382;28;20025;-66
2022/07/22 02:25:39;;;;;;;15.73;7.57;;;;;;;;;;5057129;28;20032;-66
2022/07/22 02:28:06;;;;;;;15.10;7.55;;;;;;;;;;5058804;28;20142;-66
2022/07/22 02:30:32;;;;;;;13.20;6.85;;;;;;;;;;5038469;28;20549;-66
2022/07/22 02:32:58;;;;;;;16.38;7.45;;;;;;;;;;5038952;28;21035;-66
2022/07/22 02:35:24;;;;;;;19.33;7.57;;;;;;;;;;5061999;28;20449;-66
2022/07/22 02:37:51;;;;;;;13.60;7.38;;;;;;;;;;5056308;28;20075;-66
2022/07/22 02:40:17;;;;;;;13.48;7.45;;;;;;;;;;5038731;28;20036;-66
2022/07/22 02:42:43;;;;;;;14.02;7.28;;;;;;;;;;5060783;28;20495;-66
2022/07/22 02:45:10;;;;;;;12.98;7.03;;;;;;;;;;5061717;28;20032;-66
2022/07/22 02:47:44;;;;;;;13.82;6.93;;;;;;;;;;5065775;28;20031;-66
2022/07/22 02:50:10;;;;;;;14.00;6.97;;;;;;;;;;5064411;28;20044;-66
2022/07/22 02:52:36;;;;;;;13.60;6.75;;;;;;;;;;5063396;28;20089;-65
2022/07/22 02:55:05;;;;;;;12.85;6.15;;;;;;;;;;5063983;28;20056;-66
2022/07/22 02:57:31;;;;;;;12.68;6.78;;;;;;;;;;5061952;28;20031;-66
2022/07/22 02:59:57;;;;;;;14.35;6.82;;;;;;;;;;5060410;28;20043;-66
2022/07/22 03:02:23;;;;;;;13.07;6.65;;;;;;;;;;5059983;28;20548;-66
2022/07/22 03:04:50;;;;;;;12.73;6.50;;;;;;;;;;5055496;28;20035;-66
2022/07/22 03:07:16;;;;;;;13.13;6.70;;;;;;;;;;5060329;28;20024;-66
2022/07/22 03:09:43;;;;;;;15.00;6.35;;;;;;;;;;5061346;28;20065;-66
2022/07/22 03:12:09;;;;;;;11.60;6.50;;;;;;;;;;5036890;28;20077;-66
2022/07/22 03:14:35;;;;;;;12.50;6.40;;;;;;;;;;5060830;28;20031;-66
2022/07/22 03:17:01;;;;;;;11.88;6.10;;;;;;;;;;5036870;28;20027;-65
2022/07/22 03:19:27;;;;;;;12.30;6.30;;;;;;;;;;5062160;28;20044;-65
2022/07/22 03:21:53;;;;;;;12.82;5.95;;;;;;;;;;5035019;28;20024;-66
2022/07/22 03:24:20;;;;;;;10.25;5.75;;;;;;;;;;5038319;28;20546;-66
2022/07/22 03:26:46;;;;;;;12.02;5.55;;;;;;;;;;5057205;28;20061;-66
2022/07/22 03:29:12;;;;;;;12.43;6.45;;;;;;;;;;5057022;28;20440;-65
2022/07/22 03:31:38;;;;;;;12.23;6.20;;;;;;;;;;5062451;28;20039;-65
2022/07/22 03:34:04;;;;;;;12.30;6.32;;;;;;;;;;5034251;28;20097;-66
2022/07/22 03:36:30;;;;;;;14.95;6.22;;;;;;;;;;5043496;28;20028;-66
2022/07/22 03:38:56;;;;;;;16.25;6.57;;;;;;;;;;5053841;28;20074;-67
2022/07/22 03:41:22;;;;;;;12.85;6.70;;;;;;;;;;5055216;28;20073;-66
2022/07/22 03:43:51;;;;;;;12.45;6.15;;;;;;;;;;5055600;28;20040;-66
2022/07/22 03:46:17;;;;;;;15.30;6.38;;;;;;;;;;5060180;28;20118;-66
2022/07/22 03:48:43;;;;;;;11.73;6.10;;;;;;;;;;5054607;28;20040;-66
2022/07/22 03:51:09;;;;;;;13.15;6.05;;;;;;;;;;5051621;28;20040;-67
2022/07/22 03:53:36;;;;;;;13.25;5.78;;;;;;;;;;5052701;28;20130;-66
2022/07/22 03:56:02;;;;;;;11.68;6.07;;;;;;;;;;5055311;28;20398;-66
2022/07/22 03:58:28;;;;;;;13.20;5.60;;;;;;;;;;5061077;28;20027;-66
2022/07/22 04:00:55;;;;;;;10.60;5.38;;;;;;;;;;5053935;28;20135;-66
2022/07/22 04:03:21;;;;;;;11.23;5.90;;;;;;;;;;5060556;28;20028;-66
2022/07/22 04:05:47;;;;;;;12.20;5.38;;;;;;;;;;5053085;28;20036;-66
2022/07/22 04:08:13;;;;;;;12.63;5.78;;;;;;;;;;5056754;28;20036;-66
2022/07/22 04:10:40;;;;;;;12.35;6.82;;;;;;;;;;5061024;28;20541;-66
2022/07/22 04:13:06;;;;;;;16.65;7.75;;;;;;;;;;5054418;28;20547;-66
2022/07/22 04:15:32;;;;;;;13.70;6.97;;;;;;;;;;5062349;28;20036;-66
2022/07/22 04:17:58;;;;;;;15.82;7.75;;;;;;;;;;5052535;28;20020;-65
2022/07/22 04:20:24;;;;;;;14.38;7.05;;;;;;;;;;5060898;28;20058;-66
2022/07/22 04:22:50;;;;;;;13.07;7.25;;;;;;;;;;5050398;28;20035;-66
2022/07/22 04:25:16;;;;;;;12.30;7.90;;;;;;;;;;5057527;28;20507;-66
2022/07/22 04:27:43;;;;;;;12.68;6.90;;;;;;;;;;5036865;28;20448;-65
2022/07/22 04:30:09;;;;;;;14.15;7.55;;;;;;;;;;5056153;28;20032;-67
2022/07/22 04:32:36;;;;;;;13.35;7.43;;;;;;;;;;5038027;28;20787;-68
2022/07/22 04:35:02;;;;;;;14.82;7.65;;;;;;;;;;5041549;28;20035;-65
2022/07/22 04:37:28;;;;;;;14.32;7.38;;;;;;;;;;5059366;28;20039;-65
2022/07/22 04:39:54;;;;;;;15.25;7.60;;;;;;;;;;5034602;28;20028;-65
2022/07/22 04:42:20;;;;;;;16.35;7.97;;;;;;;;;;5057047;28;20033;-65
2022/07/22 04:44:47;;;;;;;15.40;7.35;;;;;;;;;;5056017;28;20043;-66
2022/07/22 04:47:13;;;;;;;14.05;7.35;;;;;;;;;;5056794;28;20099;-66
2022/07/22 04:49:39;;;;;;;18.10;7.38;;;;;;;;;;5029427;28;20430;-65
2022/07/22 04:52:05;;;;;;;15.73;7.32;;;;;;;;;;5015334;28;20033;-65
2022/07/22 04:54:31;;;;;;;14.85;6.88;;;;;;;;;;5018609;28;20068;-66
2022/07/22 04:56:58;;;;;;;20.33;7.60;;;;;;;;;;5013686;28;20047;-66
2022/07/22 04:59:24;;;;;;;13.10;6.18;;;;;;;;;;5014592;28;20022;-66
2022/07/22 05:01:50;;;;;;;11.70;6.50;;;;;;;;;;5009848;28;20041;-66
2022/07/22 05:04:16;;;;;;;16.90;6.85;;;;;;;;;;5012605;28;20065;-66
2022/07/22 05:06:42;;;;;;;16.23;7.20;;;;;;;;;;5015017;28;20124;-66
2022/07/22 05:09:08;;;;;;;15.82;8.10;;;;;;;;;;5011318;28;20064;-66
2022/07/22 05:11:35;;;;;;;13.65;7.47;;;;;;;;;;5017016;28;20707;-66
2022/07/22 05:14:01;;;;;;;17.90;8.45;;;;;;;;;;5011089;28;20425;-66
2022/07/22 05:16:27;;;;;;;17.83;8.45;;;;;;;;;;5019883;28;20037;-66
2022/07/22 05:18:53;;;;;;;16.80;7.97;;;;;;;;;;5012526;28;20029;-65
2022/07/22 05:21:19;;;;;;;17.05;8.63;;;;;;;;;;5015532;28;20480;-66
2022/07/22 05:23:45;;;;;;;18.02;8.85;;;;;;;;;;5015442;28;20144;-66
2022/07/22 05:26:11;;;;;;;19.50;8.90;;;;;;;;;;5017058;28;20097;-66
2022/07/22 05:28:37;;;;;;;19.85;9.45;;;;;;;;;;5018574;28;20037;-66
2022/07/22 05:31:04;;;;;;;20.13;9.05;;;;;;;;;;5021601;28;20416;-66
2022/07/22 05:33:30;;;;;;;21.70;9.15;;;;;;;;;;5017085;28;20037;-66
2022/07/22 05:35:56;;;;;;;18.17;8.38;;;;;;;;;;5022028;28;20029;-66
2022/07/22 05:38:22;;;;;;;15.88;7.82;;;;;;;;;;5022839;28;20090;-65
2022/07/22 05:40:48;;;;;;;16.33;7.97;;;;;;;;;;5014018;28;20393;-66
2022/07/22 05:43:14;;;;;;;20.63;7.60;;;;;;;;;;5022284;28;20355;-66
2022/07/22 05:45:40;;;;;;;12.05;6.97;;;;;;;;;;5020037;28;20037;-66
2022/07/22 05:48:07;;;;;;;15.43;7.50;;;;;;;;;;5017540;28;20029;-66
2022/07/22 05:50:33;;;;;;;14.48;6.88;;;;;;;;;;5044604;28;20208;-66
2022/07/22 05:52:59;;;;;;;19.42;6.97;;;;;;;;;;5039454;28;20024;-66
2022/07/22 05:55:25;;;;;;;18.40;6.75;;;;;;;;;;5059567;28;20468;-65
2022/07/22 05:57:51;;;;;;;13.65;6.28;;;;;;;;;;5054504;28;20210;-65
2022/07/22 06:00:17;;;;;;;15.43;6.30;;;;;;;;;;5062539;28;20670;-65
2022/07/22 06:02:43;;;;;;;11.45;6.25;;;;;;;;;;5045594;28;20090;-65
2022/07/22 06:05:09;;;;;;;18.92;6.85;;;;;;;;;;5054841;28;20485;-66
2022/07/22 06:07:36;;;;;;;17.40;6.72;;;;;;;;;;5033454;28;20055;-65
2022/07/22 06:10:02;;;;;;;14.18;6.18;;;;;;;;;;5033412;28;20420;-65
2022/07/22 06:12:28;;;;;;;14.23;6.50;;;;;;;;;;5054682;28;20173;-65
2022/07/22 06:14:54;;;;;;;11.43;6.00;;;;;;;;;;5033491;28;20591;-65
2022/07/22 06:17:20;;;;;;;14.82;6.63;;;;;;;;;;5054160;28;20017;-65
2022/07/22 06:19:47;;;;;;;13.63;6.80;;;;;;;;;;5056178;28;20625;-65
2022/07/22 06:22:13;;;;;;;19.35;8.07;;;;;;;;;;5058513;28;20028;-66
2022/07/22 06:24:39;;;;;;;19.23;6.38;;;;;;;;;;5054475;28;21307;-65
2022/07/22 06:27:05;;;;;;;18.45;7.50;;;;;;;;;;5035773;28;20029;-65
2022/07/22 06:29:31;;;;;;;19.45;7.40;;;;;;;;;;5056778;28;20048;-65
2022/07/22 06:31:57;;;;;;;16.48;7.15;;;;;;;;;;5035748;28;20032;-65
2022/07/22 06:34:24;;;;;;;16.27;7.93;;;;;;;;;;5038254;28;20036;-65
2022/07/22 06:36:50;;;;;;;16.60;7.22;;;;;;;;;;5059070;28;20080;-66
2022/07/22 06:39:16;;;;;;;18.77;7.68;;;;;;;;;;5034553;28;20056;-66
2022/07/22 06:41:42;;;;;;;17.27;6.68;;;;;;;;;;5052169;28;20144;-66
2022/07/22 06:44:08;;;;;;;25.50;7.40;;;;;;;;;;5047877;28;20050;-66
2022/07/22 06:46:34;;;;;;;13.88;7.38;;;;;;;;;;5036574;28;20032;-66
2022/07/22 06:49:00;;;;;;;16.90;7.10;;;;;;;;;;5046385;28;20541;-66
2022/07/22 06:51:27;;;;;;;16.73;7.28;;;;;;;;;;5050572;28;20457;-65
2022/07/22 06:53:53;;;;;;;12.70;6.85;;;;;;;;;;5043517;28;20085;-66
2022/07/22 06:56:20;;;;;;;15.32;6.90;;;;;;;;;;5048146;28;20988;-66
2022/07/22 06:58:46;;;;;;;14.70;7.68;;;;;;;;;;5048609;28;20029;-66
2022/07/22 07:01:12;;;;;;;14.25;7.07;;;;;;;;;;5051327;28;20089;-65
2022/07/22 07:03:38;;;;;;;18.17;7.55;;;;;;;;;;5050600;28;20160;-65
2022/07/22 07:06:07;;;;;;;16.48;6.93;;;;;;;;;;5052817;28;20461;-65
2022/07/22 07:08:33;;;;;;;15.63;7.05;;;;;;;;;;5049049;28;20044;-65
2022/07/22 07:10:59;;;;;;;15.35;6.78;;;;;;;;;;5034260;28;20524;-66
2022/07/22 07:13:25;;;;;;;14.93;7.38;;;;;;;;;;5052553;28;20650;-66
2022/07/22 07:15:51;;;;;;;14.73;7.13;;;;;;;;;;5052564;28;20024;-65
2022/07/22 07:18:17;;;;;;;14.20;7.00;;;;;;;;;;5057172;28;20028;-65
2022/07/22 07:20:43;;;;;;;15.38;7.72;;;;;;;;;;5037969;28;20028;-67
2022/07/22 07:23:10;;;;;;;12.45;6.68;;;;;;;;;;5053606;28;20036;-67
2022/07/22 07:25:36;;;;;;;15.20;6.68;;;;;;;;;;5037631;28;20036;-66
2022/07/22 07:28:02;;;;;;;13.25;6.30;;;;;;;;;;5051293;28;20032;-65
2022/07/22 07:30:28;;;;;;;12.07;6.32;;;;;;;;;;5059948;28;20114;-66
2022/07/22 07:32:54;;;;;;;14.02;6.40;;;;;;;;;;5058280;28;20028;-65
2022/07/22 07:35:21;;;;;;;12.20;6.45;;;;;;;;;;5058073;28;20020;-66
2022/07/22 07:37:47;;;;;;;14.68;7.05;;;;;;;;;;5053532;28;20463;-66
2022/07/22 07:40:13;;;;;;;15.00;7.03;;;;;;;;;;5058104;28;20764;-66
2022/07/22 07:42:39;;;;;;;14.88;6.40;;;;;;;;;;5056619;28;20037;-66
2022/07/22 07:45:06;;;;;;;15.82;7.03;;;;;;;;;;5054573;28;20525;-66
2022/07/22 07:47:32;;;;;;;16.73;7.43;;;;;;;;;;5059814;28;20048;-66
2022/07/22 07:50:00;;;;;;;15.13;7.53;;;;;;;;;;5026432;28;20044;-65
2022/07/22 07:52:26;;;;;;;13.70;7.05;;;;;;;;;;5017073;28;20862;-65
2022/07/22 07:54:55;;;;;;;11.45;6.28;;;;;;;;;;5018499;28;20025;-66
2022/07/22 07:57:21;;;;;;;12.32;6.32;;;;;;;;;;5018119;28;20021;-66
2022/07/22 07:59:47;;;;;;;9.73;5.57;;;;;;;;;;5015598;28;20119;-67
2022/07/22 08:02:14;;;;;;;12.25;5.85;;;;;;;;;;5017833;28;20384;-66
2022/07/22 08:04:40;;;;;;;10.80;6.10;;;;;;;;;;5016080;28;20389;-67
2022/07/22 08:07:07;;;;;;;11.65;5.40;;;;;;;;;;5013180;28;21436;-67
2022/07/22 08:09:35;;;;;;;11.32;5.72;;;;;;;;;;5018250;28;20037;-66
2022/07/22 08:12:01;;;;;;;11.32;5.78;;;;;;;;;;5014438;28;20383;-66
2022/07/22 08:14:27;;;;;;;11.68;5.30;;;;;;;;;;5021470;28;20067;-66
2022/07/22 08:16:53;;;;;;;11.90;5.30;;;;;;;;;;5021005;28;20063;-66
2022/07/22 08:19:19;;;;;;;9.13;4.28;;;;;;;;;;5019551;28;20499;-66
2022/07/22 08:21:45;;;;;;;9.63;4.40;;;;;;;;;;5023461;28;20336;-65
2022/07/22 08:24:11;;;;;;;9.38;4.25;;;;;;;;;;5019410;28;20026;-66
2022/07/22 08:26:38;;;;;;;11.93;4.47;;;;;;;;;;5020969;28;20098;-66
2022/07/22 08:29:05;;;;;;;8.85;4.30;;;;;;;;;;5018634;28;20064;-66
2022/07/22 08:31:34;;;;;;;10.65;4.70;;;;;;;;;;5021349;28;20451;-66
2022/07/22 08:34:00;;;;;;;10.57;4.78;;;;;;;;;;5020717;28;20127;-66
2022/07/22 08:36:26;;;;;;;7.88;2.97;;;;;;;;;;5024045;28;20052;-66
2022/07/22 08:38:53;;;;;;;8.30;3.05;;;;;;;;;;5021774;28;20095;-66
2022/07/22 08:41:19;;;;;;;8.32;3.17;;;;;;;;;;5027777;28;20029;-66
2022/07/22 08:43:46;;;;;;;8.27;3.08;;;;;;;;;;5031583;28;20032;-67
2022/07/22 08:46:12;;;;;;;8.68;3.65;;;;;;;;;;5031683;28;20025;-67
2022/07/22 08:48:39;;;;;;;10.88;3.65;;;;;;;;;;5031836;28;20071;-67
2022/07/22 08:51:05;;;;;;;8.13;3.40;;;;;;;;;;5054212;28;20460;-67
2022/07/22 08:53:31;;;;;;;7.88;3.35;;;;;;;;;;5063480;28;20036;-66
2022/07/22 08:56:00;;;;;;;11.02;3.38;;;;;;;;;;5045513;28;20025;-66
2022/07/22 08:58:27;;;;;;;7.05;3.00;;;;;;;;;;5044701;28;20035;-66
2022/07/22 09:01:06;;;;;;;9.50;3.45;;;;;;;;;;5065253;28;20136;-65
2022/07/22 09:03:32;;;;;;;9.45;3.33;;;;;;;;;;5064273;28;20043;-66
2022/07/22 09:05:59;;;;;;;7.70;3.05;;;;;;;;;;5046099;28;20035;-66
2022/07/22 09:08:25;;;;;;;9.43;2.95;;;;;;;;;;5057178;28;20140;-67
2022/07/22 09:10:52;;;;;;;8.88;3.40;;;;;;;;;;5041001;28;20052;-65
2022/07/22 09:13:18;;;;;;;8.05;3.17;;;;;;;;;;5052674;28;20036;-65
2022/07/22 09:15:49;;;;;;;10.20;3.50;;;;;;;;;;5050900;28;20028;-66
2022/07/22 09:18:15;;;;;;;8.68;3.63;;;;;;;;;;5032013;28;20366;-66
2022/07/22 09:20:43;;;;;;;10.35;2.92;;;;;;;;;;5051674;28;20039;-66
2022/07/22 09:23:11;;;;;;;9.32;3.03;;;;;;;;;;5034313;28;20028;-66
2022/07/22 09:25:39;;;;;;;9.80;2.97;;;;;;;;;;5051533;28;20024;-66
2022/07/22 09:28:08;;;;;;;8.27;3.05;;;;;;;;;;5032273;28;20048;-66
2022/07/22 09:30:35;;;;;;;9.88;3.20;;;;;;;;;;5038785;28;20066;-65
2022/07/22 09:33:06;;;;;;;8.80;3.35;;;;;;;;;;5054895;28;20036;-65
2022/07/22 09:35:32;;;;;;;7.10;3.00;;;;;;;;;;5054891;28;20378;-65
2022/07/22 09:37:59;;;;;;;8.35;2.83;;;;;;;;;;5048988;28;20791;-65
2022/07/22 09:40:27;;;;;;;11.32;3.13;;;;;;;;;;5051279;28;20032;-65
2022/07/22 09:43:00;;;;;;;8.85;3.05;;;;;;;;;;5050927;28;20028;-66
2022/07/22 09:45:27;;;;;;;6.78;2.70;;;;;;;;;;5051992;28;20036;-66
2022/07/22 09:47:57;;;;;;;6.80;2.90;;;;;;;;;;5051171;28;20032;-65
2022/07/22 09:50:31;;;;;;;6.90;2.67;;;;;;;;;;5055380;28;20048;-65
2022/07/22 09:52:58;;;;;;;7.50;2.42;;;;;;;;;;5050990;28;20069;-65
2022/07/22 09:55:25;;;;;;;8.15;3.00;;;;;;;;;;5051776;28;20556;-65
2022/07/22 09:57:52;;;;;;;8.43;2.70;;;;;;;;;;5047631;28;20043;-64
2022/07/22 10:00:20;;;;;;;7.07;2.80;;;;;;;;;;5034427;28;20516;-65
2022/07/22 10:02:51;;;;;;;8.85;2.90;;;;;;;;;;5052640;28;20413;-65
2022/07/22 10:05:19;;;;;;;9.50;2.97;;;;;;;;;;5035951;28;20480;-65
2022/07/22 10:07:45;;;;;;;9.15;2.70;;;;;;;;;;5053866;28;20369;-65
2022/07/22 10:10:13;;;;;;;7.32;3.00;;;;;;;;;;5057577;28;20048;-65
2022/07/22 10:12:40;;;;;;;7.13;3.10;;;;;;;;;;5054689;28;20472;-66
2022/07/22 10:15:07;;;;;;;7.38;3.08;;;;;;;;;;5051207;28;20708;-65
2022/07/22 10:17:34;;;;;;;7.32;2.78;;;;;;;;;;5055797;28;20498;-67
2022/07/22 10:20:00;;;;;;;8.02;2.88;;;;;;;;;;5053379;28;20051;-66
2022/07/22 10:22:39;;;;;;;8.90;3.25;;;;;;;;;;5052449;28;20507;-67
2022/07/22 10:25:06;;;;;;;7.47;2.88;;;;;;;;;;5049094;28;20032;-66
2022/07/22 10:27:49;;;;;;;9.52;3.05;;;;;;;;;;5051338;28;20032;-66
2022/07/22 10:30:17;;;;;;;8.55;3.10;;;;;;;;;;5051349;28;20068;-66
2022/07/22 10:32:43;;;;;;;10.40;2.95;;;;;;;;;;5048674;28;20575;-67
2022/07/22 10:35:09;;;;;;;10.63;2.92;;;;;;;;;;5028952;28;20032;-66
2022/07/22 10:37:44;;;;;;;6.50;2.90;;;;;;;;;;5050618;28;20033;-65
2022/07/22 10:40:13;;;;;;;6.55;2.90;;;;;;;;;;5050011;28;21009;-66
2022/07/22 10:42:58;;;;;;;8.23;3.05;;;;;;;;;;5059320;28;20743;-66
2022/07/22 10:45:24;;;;;;;7.60;3.30;;;;;;;;;;5037050;28;20027;-65
2022/07/22 10:47:58;;;;;;;7.07;3.08;;;;;;;;;;5054084;28;20040;-65
2022/07/22 10:50:39;;;;;;;10.27;3.10;;;;;;;;;;5051648;28;20123;-65
2022/07/22 10:53:06;;;;;;;9.27;2.80;;;;;;;;;;5050027;28;20041;-65
2022/07/22 10:55:32;;;;;;;8.15;2.90;;;;;;;;;;5056425;28;20052;-65
2022/07/22 10:57:59;;;;;;;6.13;2.80;;;;;;;;;;5053224;28;20024;-65
2022/07/22 11:00:25;;;;;;;5.75;2.40;;;;;;;;;;5057582;28;20056;-66
2022/07/22 11:02:51;;;;;;;6.90;2.50;;;;;;;;;;5032737;28;20036;-66
2022/07/22 11:05:27;;;;;;;6.72;2.67;;;;;;;;;;5039253;28;20033;-66
2022/07/22 11:07:54;;;;;;;9.93;2.90;;;;;;;;;;5053063;28;20036;-66
2022/07/22 11:10:21;;;;;;;7.82;2.90;;;;;;;;;;5055213;28;20126;-66
2022/07/22 11:12:49;;;;;;;7.85;2.97;;;;;;;;;;5056758;28;20151;-64
2022/07/22 11:15:15;;;;;;;11.02;3.10;;;;;;;;;;5058378;28;20518;-64
2022/07/22 11:17:41;;;;;;;8.13;2.50;;;;;;;;;;5060413;28;20043;-64
2022/07/22 11:20:09;;;;;;;7.68;2.70;;;;;;;;;;5056030;28;20598;-65
2022/07/22 11:22:35;;;;;;;6.63;2.53;;;;;;;;;;5063935;28;20897;-68
2022/07/22 11:25:03;;;;;;;7.15;2.88;;;;;;;;;;5056821;28;20086;-65
2022/07/22 11:27:29;;;;;;;5.60;2.10;;;;;;;;;;5057188;28;20025;-64
2022/07/22 11:29:57;;;;;;;7.35;2.40;;;;;;;;;;5037337;28;20088;-66
2022/07/22 11:32:24;;;;;;;7.82;2.75;;;;;;;;;;5065917;28;20067;-67
2022/07/22 11:34:50;;;;;;;9.02;2.35;;;;;;;;;;5061554;28;20274;-65
2022/07/22 11:37:22;;;;;;;7.10;2.33;;;;;;;;;;5061913;28;20031;-66
2022/07/22 11:39:50;;;;;;;6.25;2.47;;;;;;;;;;5046827;28;20036;-65
2022/07/22 11:42:16;;;;;;;7.40;2.67;;;;;;;;;;5065729;28;20901;-66
2022/07/22 11:44:42;;;;;;;8.73;2.75;;;;;;;;;;5065676;28;20031;-66
2022/07/22 11:47:09;;;;;;;6.00;2.58;;;;;;;;;;5040009;28;20094;-65
2022/07/22 11:49:36;;;;;;;10.20;2.78;;;;;;;;;;5065712;28;20068;-65
2022/07/22 11:52:04;;;;;;;8.70;2.72;;;;;;;;;;5054113;28;20040;-65
2022/07/22 11:54:33;;;;;;;10.23;2.50;;;;;;;;;;5060089;28;20024;-65
2022/07/22 11:56:59;;;;;;;7.10;2.70;;;;;;;;;;5058335;28;20028;-66
2022/07/22 11:59:25;;;;;;;7.25;2.47;;;;;;;;;;5046482;28;20097;-65
2022/07/22 12:01:52;;;;;;;9.55;2.72;;;;;;;;;;5053236;28;20033;-65
2022/07/22 12:04:21;;;;;;;7.93;2.53;;;;;;;;;;5060031;28;20521;-66
2022/07/22 12:06:47;;;;;;;6.35;2.20;;;;;;;;;;5058275;28;20040;-66
2022/07/22 12:09:20;;;;;;;6.93;2.22;;;;;;;;;;5065856;28;20374;-66
2022/07/22 12:11:47;;;;;;;11.57;2.75;;;;;;;;;;5063339;28;20442;-66
2022/07/22 12:14:21;;;;;;;6.68;2.10;;;;;;;;;;5058868;28;20040;-65
2022/07/22 12:16:58;;;;;;;5.88;2.13;;;;;;;;;;5064439;28;20056;-66
2022/07/22 12:19:26;;;;;;;6.72;2.20;;;;;;;;;;5064910;28;20028;-66
2022/07/22 12:22:03;;;;;;;7.32;2.25;;;;;;;;;;5040467;28;20031;-67
2022/07/22 12:24:34;;;;;;;6.55;1.92;;;;;;;;;;5057085;28;20446;-67
2022/07/22 12:27:08;;;;;;;6.78;2.13;;;;;;;;;;5053312;28;20325;-67
2022/07/22 12:29:37;;;;;;;9.18;2.90;;;;;;;;;;5054273;28;20083;-66
2022/07/22 12:32:07;;;;;;;9.18;2.92;;;;;;;;;;5052749;28;20040;-67
2022/07/22 12:34:36;;;;;;;10.10;3.33;;;;;;;;;;5051324;28;20697;-66
2022/07/22 12:37:31;;;;;;;10.63;3.00;;;;;;;;;;5032701;28;20029;-66
2022/07/22 12:39:58;;;;;;;8.70;3.25;;;;;;;;;;5034609;28;20041;-66
2022/07/22 12:42:25;;;;;;;7.78;3.13;;;;;;;;;;5058797;28;20020;-66
2022/07/22 12:44:59;;;;;;;8.32;3.45;;;;;;;;;;5051989;28;20023;-67
2022/07/22 12:47:43;;;;;;;11.43;3.00;;;;;;;;;;5057610;28;20032;-67
2022/07/22 12:50:09;;;;;;;;;;;;;;;;;;5047809;28;20790;-66
2022/07/22 12:52:35;;;;;;;9.20;3.47;;;;;;;;;;5051926;28;20281;-66
2022/07/22 12:55:02;;;;;;;9.32;3.20;;;;;;;;;;5047229;28;20406;-66
2022/07/22 12:57:28;;;;;;;10.48;3.67;;;;;;;;;;5055287;28;20524;-66
2022/07/22 12:59:54;;;;;;;11.27;3.20;;;;;;;;;;5052468;28;20539;-66
2022/07/22 13:02:20;;;;;;;11.07;3.90;;;;;;;;;;5060615;28;20035;-66
2022/07/22 13:04:46;;;;;;;10.18;3.70;;;;;;;;;;5057198;28;20052;-66
2022/07/22 13:07:12;;;;;;;11.80;3.85;;;;;;;;;;5058065;28;20620;-66
2022/07/22 13:09:38;;;;;;;9.68;3.28;;;;;;;;;;5037934;28;20028;-66
2022/07/22 13:12:05;;;;;;;8.55;3.00;;;;;;;;;;5052399;28;20064;-66
2022/07/22 13:14:31;;;;;;;8.88;3.45;;;;;;;;;;5056630;28;20491;-66
2022/07/22 13:16:57;;;;;;;9.85;3.33;;;;;;;;;;5034481;28;20121;-65
2022/07/22 13:19:23;;;;;;;11.45;3.35;;;;;;;;;;5057650;28;20098;-66
2022/07/22 13:21:50;;;;;;;9.40;3.58;;;;;;;;;;5051179;28;20036;-66
2022/07/22 13:24:16;;;;;;;11.75;3.80;;;;;;;;;;5055669;28;20055;-66
2022/07/22 13:26:42;;;;;;;11.07;3.63;;;;;;;;;;5052829;28;20044;-66
2022/07/22 13:29:09;;;;;;;10.20;3.47;;;;;;;;;;5050439;28;20037;-66
2022/07/22 13:31:35;;;;;;;9.05;3.33;;;;;;;;;;5037214;28;20528;-65
2022/07/22 13:34:01;;;;;;;8.13;3.35;;;;;;;;;;5055816;28;20070;-66
2022/07/22 13:36:28;;;;;;;11.00;3.83;;;;;;;;;;5057997;28;20036;-66
2022/07/22 13:38:54;;;;;;;13.45;3.95;;;;;;;;;;5051071;28;20042;-66
2022/07/22 13:41:20;;;;;;;8.85;3.63;;;;;;;;;;5053202;28;20028;-66
2022/07/22 13:43:48;;;;;;;12.20;3.90;;;;;;;;;;5038265;28;20134;-66
2022/07/22 13:46:15;;;;;;;10.77;3.17;;;;;;;;;;5049292;28;20600;-65
2022/07/22 13:48:41;;;;;;;10.93;3.45;;;;;;;;;;5060405;28;20062;-67
2022/07/22 13:51:07;;;;;;;9.40;3.63;;;;;;;;;;5051181;28;21349;-67
2022/07/22 13:53:33;;;;;;;8.77;3.55;;;;;;;;;;5054155;28;21191;-67
2022/07/22 13:56:03;;;;;;;14.13;3.63;;;;;;;;;;5055708;28;20391;-68
2022/07/22 13:58:29;;;;;;;10.45;3.75;;;;;;;;;;5053393;28;20046;-67
2022/07/22 14:00:55;;;;;;;8.48;3.38;;;;;;;;;;5054579;28;20032;-65
2022/07/22 14:03:21;;;;;;;10.43;3.42;;;;;;;;;;5054118;28;20435;-65
2022/07/22 14:05:47;;;;;;;9.50;3.38;;;;;;;;;;5052973;28;20036;-65
2022/07/22 14:08:13;;;;;;;11.48;3.53;;;;;;;;;;5034039;28;20435;-66
2022/07/22 14:10:39;;;;;;;11.55;3.42;;;;;;;;;;5034285;28;20036;-65
2022/07/22 14:13:06;;;;;;;9.85;3.30;;;;;;;;;;5033494;28;20028;-65
2022/07/22 14:15:33;;;;;;;8.48;3.30;;;;;;;;;;5053545;28;20108;-66
2022/07/22 14:17:59;;;;;;;8.30;3.20;;;;;;;;;;5051117;28;20082;-66
2022/07/22 14:20:25;;;;;;;8.80;3.13;;;;;;;;;;5055194;28;20037;-66
2022/07/22 14:22:51;;;;;;;10.13;3.55;;;;;;;;;;5034615;28;20036;-66
2022/07/22 14:25:17;;;;;;;11.60;3.45;;;;;;;;;;5056967;28;20307;-65
2022/07/22 14:27:43;;;;;;;10.65;3.17;;;;;;;;;;5051406;28;20427;-67
2022/07/22 14:30:10;;;;;;;9.57;2.88;;;;;;;;;;5051353;28;20024;-64
2022/07/22 14:32:36;;;;;;;7.78;2.15;;;;;;;;;;5056460;28;20031;-65